createdAt,value
2023-09-21T00:00:42.519Z,69.07
2023-09-21T00:03:45.897Z,68.79
2023-09-21T00:06:48.410Z,68.26
2023-09-21T00:09:50.079Z,68.53
2023-09-21T00:12:52.359Z,68.35
2023-09-21T00:15:57.395Z,68.58
2023-09-21T00:18:59.434Z,68.97
2023-09-21T00:22:01.710Z,68.55
2023-09-21T00:25:05.276Z,69.64
2023-09-21T00:28:07.796Z,68.99
2023-09-21T00:31:09.788Z,69.29
2023-09-21T00:34:11.746Z,69.70
2023-09-21T00:37:13.886Z,69.58
2023-09-21T00:40:23.438Z,69.05
2023-09-21T00:43:25.949Z,69.72
2023-09-21T00:46:28.394Z,69.91
2023-09-21T00:49:30.555Z,69.63
2023-09-21T00:52:32.441Z,68.84
2023-09-21T00:55:35.241Z,70.25
2023-09-21T00:58:40.555Z,69.95
2023-09-21T01:01:42.977Z,69.60
2023-09-21T01:04:44.874Z,69.01
2023-09-21T01:07:46.859Z,69.51
2023-09-21T01:10:49.816Z,69.62
2023-09-21T01:13:52.422Z,69.43
2023-09-21T01:16:54.186Z,69.66
2023-09-21T01:19:55.870Z,69.87
2023-09-21T01:23:08.105Z,69.56
2023-09-21T01:26:11.038Z,70.31
2023-09-21T01:29:13.498Z,70.31
2023-09-21T01:32:15.408Z,69.74
2023-09-21T01:35:17.231Z,69.49
2023-09-21T01:38:19.478Z,69.32
2023-09-21T01:41:21.229Z,70.14
2023-09-21T01:44:23.292Z,70.64
2023-09-21T01:47:25.658Z,69.92
2023-09-21T01:50:29.190Z,69.75
2023-09-21T01:53:31.498Z,69.96
2023-09-21T01:56:33.818Z,69.47
2023-09-21T01:59:35.633Z,70.39
2023-09-21T02:02:37.823Z,71.19
2023-09-21T02:05:41.489Z,71.80
2023-09-21T02:08:44.323Z,72.07
2023-09-21T02:11:46.353Z,72.21
2023-09-21T02:14:48.426Z,72.21
2023-09-21T02:17:50.834Z,72.56
2023-09-21T02:20:55.540Z,72.21
2023-09-21T02:23:57.868Z,71.97
2023-09-21T02:26:59.911Z,72.22
2023-09-21T02:30:02.211Z,72.65
2023-09-21T02:33:05.308Z,72.78
2023-09-21T02:36:14.556Z,75.23
2023-09-21T02:39:16.412Z,73.32
2023-09-21T02:42:18.804Z,72.97
2023-09-21T02:45:23.222Z,73.32
2023-09-21T02:48:25.307Z,73.21
2023-09-21T02:51:27.613Z,73.59
2023-09-21T02:54:29.266Z,73.03
2023-09-21T02:57:31.574Z,73.25
2023-09-21T03:00:34.331Z,73.81
2023-09-21T03:03:36.365Z,74.97
2023-09-21T03:06:38.718Z,75.59
2023-09-21T03:09:40.382Z,75.83
2023-09-21T03:12:42.320Z,76.23
2023-09-21T03:15:45.488Z,76.99
2023-09-21T03:18:48.040Z,76.71
2023-09-21T03:21:50.437Z,75.98
2023-09-21T03:24:52.730Z,76.45
2023-09-21T03:27:56.716Z,76.87
2023-09-21T03:30:58.720Z,77.90
2023-09-21T03:34:00.810Z,78.31
2023-09-21T03:37:02.453Z,78.68
2023-09-21T03:40:04.483Z,80.21
2023-09-21T03:43:07.710Z,80.96
2023-09-21T03:46:09.964Z,81.43
2023-09-21T03:49:14.340Z,81.94
2023-09-21T03:52:16.215Z,82.77
2023-09-21T03:55:18.441Z,82.63
2023-09-21T03:58:20.193Z,82.97
2023-09-21T04:01:21.959Z,82.83
2023-09-21T04:04:24.170Z,82.48
2023-09-21T04:07:26.360Z,82.33
2023-09-21T04:10:28.751Z,82.33
2023-09-21T04:13:30.988Z,82.58
2023-09-21T04:16:32.896Z,81.98
2023-09-21T04:19:37.247Z,81.73
2023-09-21T04:22:41.940Z,83.24
2023-09-21T04:25:45.271Z,81.87
2023-09-21T04:28:47.116Z,81.65
2023-09-21T04:31:49.345Z,81.66
2023-09-21T04:34:51.353Z,81.70
2023-09-21T04:37:53.811Z,81.71
2023-09-21T04:40:56.497Z,81.12
2023-09-21T04:43:58.605Z,81.23
2023-09-21T04:47:00.759Z,81.39
2023-09-21T04:50:02.685Z,81.31
2023-09-21T04:53:04.654Z,80.78
2023-09-21T04:56:07.184Z,79.81
2023-09-21T04:59:09.594Z,79.25
2023-09-21T05:02:11.324Z,78.51
2023-09-21T05:05:13.918Z,78.04
2023-09-21T05:08:30.472Z,77.66
2023-09-21T05:11:33.043Z,77.25
2023-09-21T05:14:35.304Z,79.59
2023-09-21T05:17:37.188Z,81.77
2023-09-21T05:20:39.129Z,84.50
2023-09-21T05:23:41.159Z,84.17
2023-09-21T05:26:43.138Z,82.53
2023-09-21T05:29:46.199Z,84.22
2023-09-21T05:32:48.182Z,86.01
2023-09-21T05:35:52.108Z,85.67
2023-09-21T05:38:53.929Z,85.18
2023-09-21T05:41:56.228Z,85.05
2023-09-21T05:44:58.382Z,85.32
2023-09-21T05:48:00.745Z,86.44
2023-09-21T05:51:18.609Z,86.21
2023-09-21T05:54:22.144Z,86.71
2023-09-21T05:57:25.201Z,85.32
2023-09-21T06:00:27.815Z,85.12
2023-09-21T06:03:29.924Z,84.90
2023-09-21T06:06:31.677Z,82.88
2023-09-21T06:09:33.904Z,82.37
2023-09-21T06:12:35.899Z,82.81
2023-09-21T06:15:41.027Z,82.49
2023-09-21T06:18:43.607Z,81.98
2023-09-21T06:21:45.601Z,79.79
2023-09-21T06:24:47.946Z,81.89
2023-09-21T06:27:49.811Z,83.20
2023-09-21T06:30:52.675Z,78.85
2023-09-21T06:33:54.945Z,79.18
2023-09-21T06:36:57.625Z,79.63
2023-09-21T06:40:00.698Z,78.38
2023-09-21T06:43:03.005Z,78.14
2023-09-21T06:46:06.396Z,78.01
2023-09-21T06:49:11.270Z,78.04
2023-09-21T06:52:16.654Z,77.89
2023-09-21T06:55:19.096Z,77.84
2023-09-21T06:58:22.081Z,79.18
2023-09-21T07:01:24.939Z,78.88
2023-09-21T07:04:29.451Z,78.96
2023-09-21T07:07:31.379Z,77.92
2023-09-21T07:10:33.906Z,77.82
2023-09-21T07:13:35.555Z,77.43
2023-09-21T07:16:37.339Z,76.77
2023-09-21T07:19:39.778Z,76.07
2023-09-21T07:22:41.516Z,75.74
2023-09-21T07:25:43.530Z,74.75
2023-09-21T07:28:45.581Z,74.63
2023-09-21T07:31:48.647Z,73.76
2023-09-21T07:34:50.669Z,73.48
2023-09-21T07:37:52.486Z,72.46
2023-09-21T07:40:55.074Z,72.25
2023-09-21T07:43:57.290Z,72.04
2023-09-21T07:46:59.923Z,72.52
2023-09-21T07:50:02.291Z,72.72
2023-09-21T07:53:04.223Z,73.29
2023-09-21T07:56:06.254Z,73.11
2023-09-21T07:59:08.737Z,72.23
2023-09-21T08:02:11.449Z,72.62
2023-09-21T08:05:15.043Z,72.48
2023-09-21T08:08:18.011Z,73.80
2023-09-21T08:11:20.236Z,74.29
2023-09-21T08:14:22.051Z,75.77
2023-09-21T08:17:23.906Z,80.27
2023-09-21T08:20:28.613Z,85.18
2023-09-21T08:23:31.688Z,86.37
2023-09-21T08:26:33.739Z,85.11
2023-09-21T08:29:36.278Z,84.71
2023-09-21T08:32:38.296Z,85.09
2023-09-21T08:35:43.164Z,84.37
2023-09-21T08:38:48.836Z,86.85
2023-09-21T08:41:51.973Z,87.03
2023-09-21T08:44:55.014Z,86.88
2023-09-21T08:47:57.323Z,86.74
2023-09-21T08:51:00.371Z,88.14
2023-09-21T08:54:04.892Z,88.06
2023-09-21T08:57:10.717Z,88.48
2023-09-21T09:00:13.600Z,88.42
2023-09-21T09:09:29.783Z,94.98
2023-09-21T09:12:31.865Z,93.04
2023-09-21T09:15:35.142Z,93.87
2023-09-21T09:18:37.623Z,92.19
2023-09-21T09:21:41.107Z,90.10
2023-09-21T09:24:46.158Z,90.50
2023-09-21T09:27:59.831Z,91.29
2023-09-21T09:31:01.711Z,90.81
2023-09-21T09:34:03.663Z,89.11
2023-09-21T09:37:06.830Z,88.29
2023-09-21T09:40:10.224Z,87.96
2023-09-21T09:43:16.520Z,88.60
2023-09-21T09:46:21.223Z,88.02
2023-09-21T09:49:27.508Z,87.91
2023-09-21T09:52:29.998Z,84.83
2023-09-21T09:55:33.548Z,83.83
2023-09-21T09:58:39.141Z,83.76
2023-09-21T10:01:41.738Z,82.19
2023-09-21T10:04:46.722Z,81.16
2023-09-21T10:07:51.250Z,78.33
2023-09-21T10:10:58.737Z,78.27
2023-09-21T10:14:01.651Z,77.51
2023-09-21T10:17:06.282Z,76.41
2023-09-21T10:20:13.048Z,76.38
2023-09-21T10:23:18.418Z,74.71
2023-09-21T10:26:20.995Z,73.99
2023-09-21T10:32:42.814Z,71.48
2023-09-21T10:35:49.056Z,67.97
2023-09-21T10:39:15.623Z,69.32
2023-09-21T10:49:21.995Z,67.45
2023-09-21T10:52:33.257Z,68.75
2023-09-21T10:55:35.786Z,70.50
2023-09-21T10:58:37.745Z,68.56
2023-09-21T11:01:40.052Z,68.02
2023-09-21T11:04:43.074Z,68.05
2023-09-21T11:07:48.693Z,68.08
2023-09-21T11:10:50.853Z,68.20
2023-09-21T11:13:53.111Z,67.61
2023-09-21T11:16:58.145Z,63.38
2023-09-21T11:20:02.068Z,53.73
2023-09-21T11:23:04.467Z,50.35
2023-09-21T11:26:06.405Z,52.93
2023-09-21T11:29:09.390Z,53.54
2023-09-21T11:32:15.007Z,45.17
2023-09-21T11:35:19.294Z,41.27
2023-09-21T11:38:21.648Z,37.47
2023-09-21T11:41:23.750Z,34.17
2023-09-21T11:44:30.432Z,32.39
2023-09-21T11:47:32.541Z,38.06
2023-09-21T11:50:35.813Z,41.94
2023-09-21T11:53:38.266Z,40.79
2023-09-21T11:56:40.479Z,34.58
2023-09-21T11:59:42.407Z,32.62
2023-09-21T12:02:44.657Z,33.75
2023-09-21T12:05:46.653Z,33.59
2023-09-21T12:08:48.546Z,32.02
2023-09-21T12:11:50.811Z,33.25
2023-09-21T12:14:52.990Z,30.89
2023-09-21T12:17:54.875Z,32.03
2023-09-21T12:20:57.120Z,30.77
2023-09-21T12:24:02.541Z,32.16
2023-09-21T12:27:19.359Z,37.41
2023-09-21T12:30:21.296Z,43.36
2023-09-21T12:33:42.224Z,46.78
2023-09-21T12:36:45.503Z,50.08
2023-09-21T12:39:47.398Z,52.01
2023-09-21T12:42:49.386Z,52.16
2023-09-21T12:45:51.417Z,52.20
2023-09-21T12:48:56.496Z,52.00
2023-09-21T12:51:58.803Z,52.26
2023-09-21T12:55:00.807Z,51.72
2023-09-21T12:58:03.554Z,51.79
2023-09-21T13:01:05.365Z,51.87
2023-09-21T13:04:07.652Z,52.72
2023-09-21T13:07:10.335Z,53.12
2023-09-21T13:10:14.146Z,54.62
2023-09-21T13:13:16.584Z,54.72
2023-09-21T13:16:18.304Z,54.29
2023-09-21T13:19:20.589Z,54.09
2023-09-21T13:22:25.528Z,54.09
2023-09-21T13:25:27.747Z,54.44
2023-09-21T13:28:30.256Z,54.69
2023-09-21T13:31:32.011Z,55.68
2023-09-21T13:34:36.215Z,56.03
2023-09-21T13:37:40.030Z,55.96
2023-09-21T13:40:45.495Z,56.17
2023-09-21T13:43:48.487Z,56.26
2023-09-21T13:46:52.248Z,56.06
2023-09-21T13:49:54.504Z,56.54
2023-09-21T13:52:56.433Z,56.66
2023-09-21T13:55:58.069Z,56.59
2023-09-21T13:58:59.808Z,56.26
2023-09-21T14:02:02.382Z,55.44
2023-09-21T14:05:04.534Z,54.98
2023-09-21T14:08:07.154Z,54.93
2023-09-21T14:11:09.750Z,55.72
2023-09-21T14:14:12.315Z,56.12
2023-09-21T14:17:14.574Z,56.54
2023-09-21T14:20:17.115Z,56.50
2023-09-21T14:23:18.808Z,56.54
2023-09-21T14:26:20.849Z,56.01
2023-09-21T14:29:22.531Z,56.24
2023-09-21T14:32:25.222Z,56.24
2023-09-21T14:35:27.469Z,55.57
2023-09-21T14:38:29.118Z,56.12
2023-09-21T14:41:31.796Z,55.86
2023-09-21T14:44:34.620Z,56.66
2023-09-21T14:47:36.912Z,55.90
2023-09-21T14:50:39.182Z,55.95
2023-09-21T14:53:41.174Z,56.10
2023-09-21T14:56:43.191Z,56.34
2023-09-21T14:59:44.980Z,56.25
2023-09-21T15:02:47.748Z,56.06
2023-09-21T15:05:50.058Z,55.60
2023-09-21T15:08:51.926Z,55.17
2023-09-21T15:11:54.148Z,54.94
2023-09-21T15:14:56.932Z,55.12
2023-09-21T15:17:59.709Z,54.94
2023-09-21T15:21:01.894Z,55.28
2023-09-21T15:24:03.874Z,55.09
2023-09-21T15:27:06.052Z,55.49
2023-09-21T15:30:08.335Z,55.66
2023-09-21T15:33:22.867Z,54.88
2023-09-21T15:36:32.887Z,55.11
2023-09-21T15:39:35.403Z,55.56
2023-09-21T15:42:37.270Z,55.72
2023-09-21T15:45:39.227Z,55.91
2023-09-21T15:48:43.025Z,55.64
2023-09-21T15:51:46.367Z,54.70
2023-09-21T15:54:48.373Z,55.27
2023-09-21T15:58:02.726Z,54.85
2023-09-21T16:01:04.925Z,55.43
2023-09-21T16:04:09.697Z,55.65
2023-09-21T16:07:11.576Z,55.91
2023-09-21T16:10:14.072Z,55.80
2023-09-21T16:13:16.044Z,55.65
2023-09-21T16:16:18.609Z,56.18
2023-09-21T16:19:20.857Z,56.00
2023-09-21T16:22:23.055Z,56.30
2023-09-21T16:25:25.202Z,56.63
2023-09-21T16:28:26.889Z,56.79
2023-09-21T16:31:29.460Z,56.97
2023-09-21T16:34:31.593Z,57.26
2023-09-21T16:37:33.276Z,57.40
2023-09-21T16:40:36.727Z,57.64
2023-09-21T16:43:38.976Z,58.04
2023-09-21T16:46:43.501Z,58.03
2023-09-21T16:49:45.195Z,57.83
2023-09-21T16:52:47.848Z,58.03
2023-09-21T16:55:50.284Z,58.17
2023-09-21T16:58:52.499Z,58.30
2023-09-21T17:01:54.715Z,58.36
2023-09-21T17:04:56.524Z,58.39
2023-09-21T17:07:58.941Z,58.43
2023-09-21T17:11:01.126Z,58.61
2023-09-21T17:14:02.834Z,58.83
2023-09-21T17:17:05.014Z,58.79
2023-09-21T17:20:08.101Z,58.78
2023-09-21T17:23:10.298Z,58.83
2023-09-21T17:26:12.189Z,58.83
2023-09-21T17:29:13.922Z,58.85
2023-09-21T17:32:15.947Z,59.10
2023-09-21T17:35:18.014Z,59.17
2023-09-21T17:38:20.456Z,59.29
2023-09-21T17:41:22.543Z,59.26
2023-09-21T17:44:24.486Z,59.51
2023-09-21T17:47:26.767Z,59.71
2023-09-21T17:50:29.076Z,59.73
2023-09-21T17:53:31.494Z,59.97
2023-09-21T17:56:36.254Z,60.47
2023-09-21T17:59:38.256Z,61.69
2023-09-21T18:02:41.042Z,63.19
2023-09-21T18:05:45.111Z,63.37
2023-09-21T18:08:47.714Z,62.94
2023-09-21T18:11:50.043Z,62.57
2023-09-21T18:14:52.194Z,62.60
2023-09-21T18:17:53.865Z,62.98
2023-09-21T18:20:55.686Z,63.72
2023-09-21T18:23:58.167Z,64.39
2023-09-21T18:27:00.698Z,65.10
2023-09-21T18:30:03.204Z,65.58
2023-09-21T18:33:07.804Z,65.94
2023-09-21T18:36:09.822Z,66.13
2023-09-21T18:39:12.204Z,66.54
2023-09-21T18:42:14.499Z,67.05
2023-09-21T18:45:18.757Z,67.22
2023-09-21T18:48:22.089Z,67.53
2023-09-21T18:51:24.639Z,67.86
2023-09-21T18:54:27.536Z,68.16
2023-09-21T18:57:29.966Z,68.56
2023-09-21T19:00:32.253Z,68.75
2023-09-21T19:03:35.522Z,69.15
2023-09-21T19:06:37.500Z,69.24
2023-09-21T19:09:39.787Z,69.71
2023-09-21T19:12:42.391Z,69.42
2023-09-21T19:15:45.212Z,70.35
2023-09-21T19:18:47.882Z,71.27
2023-09-21T19:21:50.141Z,71.76
2023-09-21T19:24:52.800Z,72.13
2023-09-21T19:27:54.898Z,72.66
2023-09-21T19:30:56.997Z,72.80
2023-09-21T19:33:59.290Z,73.04
2023-09-21T19:37:00.956Z,73.36
2023-09-21T19:40:02.806Z,73.68
2023-09-21T19:43:04.854Z,73.92
2023-09-21T19:46:06.953Z,73.91
2023-09-21T19:49:08.601Z,74.26
2023-09-21T19:52:10.403Z,74.66
2023-09-21T19:55:13.094Z,75.13
2023-09-21T19:58:15.011Z,75.38
2023-09-21T20:01:17.139Z,75.49
2023-09-21T20:04:19.437Z,75.05
2023-09-21T20:07:22.886Z,74.86
2023-09-21T20:10:24.788Z,73.47
2023-09-21T20:13:26.923Z,74.04
2023-09-21T20:16:28.639Z,75.27
2023-09-21T20:19:30.627Z,75.02
2023-09-21T20:22:32.418Z,75.12
2023-09-21T20:25:34.256Z,74.87
2023-09-21T20:28:35.943Z,74.81
2023-09-21T20:31:38.309Z,74.93
2023-09-21T20:34:40.471Z,75.07
2023-09-21T20:37:42.714Z,75.23
2023-09-21T20:40:44.393Z,75.01
2023-09-21T20:43:46.238Z,75.18
2023-09-21T20:46:49.417Z,75.49
2023-09-21T20:49:51.752Z,75.58
2023-09-21T20:52:53.697Z,75.61
2023-09-21T20:55:59.031Z,75.04
2023-09-21T20:59:00.957Z,75.16
2023-09-21T21:02:03.250Z,74.99
2023-09-21T21:05:07.005Z,74.91
2023-09-21T21:08:09.276Z,74.33
2023-09-21T21:11:10.992Z,73.72
2023-09-21T21:14:13.305Z,73.38
2023-09-21T21:17:15.011Z,73.23
2023-09-21T21:20:16.830Z,72.73
2023-09-21T21:23:18.454Z,72.30
2023-09-21T21:26:23.357Z,72.44
2023-09-21T21:29:25.605Z,72.26
2023-09-21T21:32:28.785Z,71.51
2023-09-21T21:35:30.820Z,71.90
2023-09-21T21:38:32.932Z,72.50
2023-09-21T21:41:34.759Z,73.16
2023-09-21T21:44:37.117Z,74.29
2023-09-21T21:47:39.414Z,75.67
2023-09-21T21:50:41.440Z,76.09
2023-09-21T21:53:46.058Z,76.37
2023-09-21T21:56:49.298Z,76.61
2023-09-21T21:59:51.274Z,77.04
2023-09-21T22:02:53.866Z,77.51
2023-09-21T22:05:55.789Z,78.10
2023-09-21T22:08:57.691Z,78.72
2023-09-21T22:11:59.638Z,78.89
2023-09-21T22:15:02.800Z,79.00
2023-09-21T22:18:05.739Z,79.25
2023-09-21T22:21:09.375Z,79.46
2023-09-21T22:24:12.017Z,79.85
2023-09-21T22:27:14.426Z,80.35
2023-09-21T22:30:16.780Z,80.50
2023-09-21T22:33:18.936Z,80.77
2023-09-21T22:36:20.983Z,80.78
2023-09-21T22:39:22.655Z,81.39
2023-09-21T22:42:26.615Z,81.85
2023-09-21T22:45:33.053Z,82.26
2023-09-21T22:48:35.077Z,81.77
2023-09-21T22:51:37.476Z,81.88
2023-09-21T22:54:39.521Z,82.36
2023-09-21T22:57:41.625Z,82.43
2023-09-21T23:00:55.286Z,82.98
2023-09-21T23:03:57.741Z,83.62
2023-09-21T23:06:59.982Z,83.79
2023-09-21T23:10:02.229Z,84.24
2023-09-21T23:13:04.467Z,84.61
2023-09-21T23:16:07.786Z,84.16
2023-09-21T23:19:09.754Z,84.76
2023-09-21T23:22:11.585Z,84.98
2023-09-21T23:25:14.416Z,85.42
2023-09-21T23:28:16.920Z,85.97
2023-09-21T23:31:18.779Z,86.36
2023-09-21T23:34:20.789Z,86.56
2023-09-21T23:37:22.531Z,86.75
2023-09-21T23:40:24.317Z,86.93
2023-09-21T23:43:26.519Z,87.07
2023-09-21T23:46:28.778Z,87.22
2023-09-21T23:49:30.753Z,87.02
2023-09-21T23:52:32.701Z,87.06
2023-09-21T23:55:34.415Z,87.03
2023-09-21T23:58:37.006Z,87.20
